Senin
| Ora | Descriere | Temp | Se simte | Precipitatii | Umiditate | Vant |
|---|---|---|---|---|---|---|
| 00:00 | Senin | 12.9° | 11.5° | 0% | 66% | SSE 15.5 KM/H |
| 01:00 | Senin | 12.2° | 10.6° | 0% | 68% | S 15.8 KM/H |
| 02:00 | Senin | 11.8° | 10.1° | 0% | 70% | S 15.8 KM/H |
| 03:00 | Senin | 11.3° | 9.6° | 0% | 70% | S 14.8 KM/H |
| 04:00 | Senin | 10.7° | 8.9° | 0% | 71% | SSE 13.3 KM/H |
| 05:00 | Senin | 10.1° | 8.3° | 0% | 72% | SSE 13.3 KM/H |
| 06:00 | Senin | 9.8° | 7.8° | 0% | 73% | SSE 13.7 KM/H |
| 07:00 | Senin | 10.3° | 8.6° | 0% | 72% | SSE 13 KM/H |
| 08:00 | Senin | 12° | 10.1° | 0% | 63% | SSE 17.6 KM/H |
| 09:00 | Senin | 14.3° | 12.8° | 0% | 56% | SSE 20.2 KM/H |
| 10:00 | Senin | 16.3° | 16.3° | 0% | 51% | S 23.4 KM/H |
| 11:00 | Senin | 17.9° | 17.9° | 0% | 48% | SSE 25.6 KM/H |
| 12:00 | Senin | 19° | 19° | 0% | 45% | SSE 26.3 KM/H |
| 13:00 | Senin | 19.9° | 19.9° | 0% | 44% | SSE 26.3 KM/H |
| 14:00 | Senin | 20.7° | 20.8° | 0% | 43% | SSE 25.9 KM/H |
| 15:00 | Senin | 21.2° | 21.2° | 0% | 43% | SSE 25.2 KM/H |
| 16:00 | Senin | 21.3° | 21.3° | 0% | 43% | SSE 25.9 KM/H |
| 17:00 | Senin | 21.1° | 21.1° | 0% | 44% | SSE 27 KM/H |
| 18:00 | Senin | 20.5° | 20.5° | 0% | 49% | SSE 25.2 KM/H |
| 19:00 | Senin | 18.9° | 18.9° | 0% | 53% | SSE 25.6 KM/H |
| 20:00 | Senin | 16.9° | 16.9° | 0% | 59% | SSE 23.4 KM/H |
| 21:00 | Senin | 15° | 13.6° | 0% | 63% | SSE 20.9 KM/H |
| 22:00 | Senin | 13.8° | 12.2° | 0% | 67% | SSE 19.8 KM/H |
| 23:00 | Senin | 13° | 11.3° | 0% | 70% | SSE 18.4 KM/H |